sensor_id;sensor_type;location;lat;lon;timestamp;pressure;altitude;pressure_sealevel;temperature;humidity
23574;BME280;11965;53.640;10.050;2024-02-15T00:00:29;101295.38;;;10.39;100.00
23574;BME280;11965;53.640;10.050;2024-02-15T00:02:57;101290.91;;;10.38;100.00
23574;BME280;11965;53.640;10.050;2024-02-15T00:05:24;101294.22;;;10.34;100.00
23574;BME280;11965;53.640;10.050;2024-02-15T00:07:51;101296.16;;;10.25;100.00
23574;BME280;11965;53.640;10.050;2024-02-15T00:10:19;101297.38;;;10.23;100.00
23574;BME280;11965;53.640;10.050;2024-02-15T00:12:48;101299.97;;;10.32;100.00
23574;BME280;11965;53.640;10.050;2024-02-15T00:15:16;101290.59;;;10.25;100.00
23574;BME280;11965;53.640;10.050;2024-02-15T00:17:45;101301.66;;;10.33;100.00
23574;BME280;11965;53.640;10.050;2024-02-15T00:20:12;101296.34;;;10.32;100.00
23574;BME280;11965;53.640;10.050;2024-02-15T00:22:40;101294.22;;;10.34;100.00
23574;BME280;11965;53.640;10.050;2024-02-15T00:25:07;101296.34;;;10.32;100.00
23574;BME280;11965;53.640;10.050;2024-02-15T00:27:36;101304.22;;;10.43;100.00
23574;BME280;11965;53.640;10.050;2024-02-15T00:30:04;101299.75;;;10.34;100.00
23574;BME280;11965;53.640;10.050;2024-02-15T00:32:32;101296.81;;;10.35;100.00
23574;BME280;11965;53.640;10.050;2024-02-15T00:35:00;101295.59;;;10.38;100.00
23574;BME280;11965;53.640;10.050;2024-02-15T00:37:27;101301.03;;;10.54;100.00
23574;BME280;11965;53.640;10.050;2024-02-15T00:39:53;101291.41;;;10.42;100.00
23574;BME280;11965;53.640;10.050;2024-02-15T00:42:21;101294.22;;;10.34;100.00
23574;BME280;11965;53.640;10.050;2024-02-15T00:44:50;101303.31;;;10.51;100.00
23574;BME280;11965;53.640;10.050;2024-02-15T00:47:17;101298.31;;;10.46;100.00
23574;BME280;11965;53.640;10.050;2024-02-15T00:49:46;101300.03;;;10.47;100.00
23574;BME280;11965;53.640;10.050;2024-02-15T00:52:13;101298.31;;;10.46;100.00
23574;BME280;11965;53.640;10.050;2024-02-15T00:54:40;101307.13;;;10.50;100.00
23574;BME280;11965;53.640;10.050;2024-02-15T00:57:07;101306.31;;;10.41;100.00
23574;BME280;11965;53.640;10.050;2024-02-15T00:59:34;101303.84;;;10.46;100.00
23574;BME280;11965;53.640;10.050;2024-02-15T01:02:03;101304.84;;;10.53;100.00
23574;BME280;11965;53.640;10.050;2024-02-15T01:04:30;101304.50;;;10.56;100.00
23574;BME280;11965;53.640;10.050;2024-02-15T01:06:57;101284.47;;;10.46;100.00
23574;BME280;11965;53.640;10.050;2024-02-15T01:09:24;101304.50;;;10.56;100.00
23574;BME280;11965;53.640;10.050;2024-02-15T01:11:51;101316.00;;;10.45;100.00
23574;BME280;11965;53.640;10.050;2024-02-15T01:14:19;101306.47;;;10.48;100.00
23574;BME280;11965;53.640;10.050;2024-02-15T01:16:45;101306.56;;;10.54;100.00
23574;BME280;11965;53.640;10.050;2024-02-15T01:19:14;101306.78;;;10.45;100.00
23574;BME280;11965;53.640;10.050;2024-02-15T01:21:41;101306.25;;;10.49;100.00
23574;BME280;11965;53.640;10.050;2024-02-15T01:24:09;101304.16;;;10.51;100.00
23574;BME280;11965;53.640;10.050;2024-02-15T01:26:36;101307.25;;;10.56;100.00
23574;BME280;11965;53.640;10.050;2024-02-15T01:29:03;101307.97;;;10.50;100.00
23574;BME280;11965;53.640;10.050;2024-02-15T01:31:30;101307.31;;;10.48;100.00
23574;BME280;11965;53.640;10.050;2024-02-15T01:33:57;101310.09;;;10.48;100.00
23574;BME280;11965;53.640;10.050;2024-02-15T01:36:25;101305.72;;;10.54;100.00
23574;BME280;11965;53.640;10.050;2024-02-15T01:38:52;101299.84;;;10.49;100.00
23574;BME280;11965;53.640;10.050;2024-02-15T01:41:18;101305.94;;;10.44;100.00
23574;BME280;11965;53.640;10.050;2024-02-15T01:43:45;101307.44;;;10.55;100.00
23574;BME280;11965;53.640;10.050;2024-02-15T01:46:14;101305.94;;;10.44;100.00
23574;BME280;11965;53.640;10.050;2024-02-15T01:48:43;101306.31;;;10.41;100.00
23574;BME280;11965;53.640;10.050;2024-02-15T01:51:13;101306.47;;;10.39;100.00
23574;BME280;11965;53.640;10.050;2024-02-15T01:53:43;101306.47;;;10.39;100.00
23574;BME280;11965;53.640;10.050;2024-02-15T01:56:13;101308.03;;;10.42;100.00
23574;BME280;11965;53.640;10.050;2024-02-15T01:58:43;101308.34;;;10.47;100.00
23574;BME280;11965;53.640;10.050;2024-02-15T02:01:12;101303.84;;;10.46;100.00
23574;BME280;11965;53.640;10.050;2024-02-15T02:03:40;101314.94;;;10.46;100.00
23574;BME280;11965;53.640;10.050;2024-02-15T02:06:07;101314.50;;;10.57;100.00
23574;BME280;11965;53.640;10.050;2024-02-15T02:08:34;101311.88;;;10.64;100.00
23574;BME280;11965;53.640;10.050;2024-02-15T02:11:04;101302.63;;;10.49;100.00
23574;BME280;11965;53.640;10.050;2024-02-15T02:13:31;101307.63;;;10.53;100.00
23574;BME280;11965;53.640;10.050;2024-02-15T02:15:58;101305.56;;;10.47;100.00
23574;BME280;11965;53.640;10.050;2024-02-15T02:18:25;101306.25;;;10.49;100.00
23574;BME280;11965;53.640;10.050;2024-02-15T02:20:52;101299.06;;;10.63;100.00
23574;BME280;11965;53.640;10.050;2024-02-15T02:23:21;101300.16;;;10.54;100.00
23574;BME280;11965;53.640;10.050;2024-02-15T02:25:54;101265.13;;;10.38;100.00
23574;BME280;11965;53.640;10.050;2024-02-15T02:28:22;101302.94;;;10.54;100.00
23574;BME280;11965;53.640;10.050;2024-02-15T02:30:49;101293.09;;;10.51;100.00
23574;BME280;11965;53.640;10.050;2024-02-15T02:33:16;101298.03;;;10.64;100.00
23574;BME280;11965;53.640;10.050;2024-02-15T02:35:45;101300.16;;;10.54;100.00
23574;BME280;11965;53.640;10.050;2024-02-15T02:38:13;101297.09;;;10.49;100.00
23574;BME280;11965;53.640;10.050;2024-02-15T02:40:41;101295.84;;;10.51;100.00
23574;BME280;11965;53.640;10.050;2024-02-15T02:43:09;101306.41;;;10.56;100.00
23574;BME280;11965;53.640;10.050;2024-02-15T02:45:36;101309.66;;;10.59;100.00
23574;BME280;11965;53.640;10.050;2024-02-15T02:48:04;101303.31;;;10.51;100.00
23574;BME280;11965;53.640;10.050;2024-02-15T02:50:31;101300.16;;;10.54;100.00
23574;BME280;11965;53.640;10.050;2024-02-15T02:52:58;101309.19;;;10.56;100.00
23574;BME280;11965;53.640;10.050;2024-02-15T02:55:25;101302.75;;;10.55;100.00
23574;BME280;11965;53.640;10.050;2024-02-15T02:57:53;101300.16;;;10.54;100.00
23574;BME280;11965;53.640;10.050;2024-02-15T03:00:22;101301.41;;;10.51;100.00
23574;BME280;11965;53.640;10.050;2024-02-15T03:02:49;101294.31;;;10.49;100.00
23574;BME280;11965;53.640;10.050;2024-02-15T03:05:16;101294.56;;;10.62;100.00
23574;BME280;11965;53.640;10.050;2024-02-15T03:07:46;101291.16;;;10.52;100.00
23574;BME280;11965;53.640;10.050;2024-02-15T03:10:13;101293.78;;;10.53;100.00
23574;BME280;11965;53.640;10.050;2024-02-15T03:12:40;101292.16;;;10.59;100.00
23574;BME280;11965;53.640;10.050;2024-02-15T03:15:13;101302.69;;;10.64;100.00
23574;BME280;11965;53.640;10.050;2024-02-15T03:17:43;101300.84;;;10.56;100.00
23574;BME280;11965;53.640;10.050;2024-02-15T03:20:12;101298.50;;;10.68;100.00
23574;BME280;11965;53.640;10.050;2024-02-15T03:22:50;101306.19;;;10.57;100.00
23574;BME280;11965;53.640;10.050;2024-02-15T03:25:18;101308.22;;;10.64;100.00
23574;BME280;11965;53.640;10.050;2024-02-15T03:27:45;101295.66;;;10.53;100.00
23574;BME280;11965;53.640;10.050;2024-02-15T03:30:12;101306.88;;;10.59;100.00
23574;BME280;11965;53.640;10.050;2024-02-15T03:32:39;101311.19;;;10.62;100.00
23574;BME280;11965;53.640;10.050;2024-02-15T03:35:09;101308.44;;;10.62;100.00
23574;BME280;11965;53.640;10.050;2024-02-15T03:37:39;101306.34;;;10.64;100.00
23574;BME280;11965;53.640;10.050;2024-02-15T03:40:08;101304.75;;;10.70;100.00
23574;BME280;11965;53.640;10.050;2024-02-15T03:42:36;101305.44;;;10.64;100.00
23574;BME280;11965;53.640;10.050;2024-02-15T03:45:04;101316.22;;;10.58;100.00
23574;BME280;11965;53.640;10.050;2024-02-15T03:47:31;101321.38;;;10.70;100.00
23574;BME280;11965;53.640;10.050;2024-02-15T03:49:58;101325.22;;;10.60;100.00
23574;BME280;11965;53.640;10.050;2024-02-15T03:52:26;101320.50;;;10.69;100.00
23574;BME280;11965;53.640;10.050;2024-02-15T03:54:53;101325.69;;;10.72;100.00
23574;BME280;11965;53.640;10.050;2024-02-15T03:57:20;101329.88;;;10.68;100.00
23574;BME280;11965;53.640;10.050;2024-02-15T03:59:47;101338.38;;;10.67;100.00
23574;BME280;11965;53.640;10.050;2024-02-15T04:02:16;101325.81;;;10.79;100.00
23574;BME280;11965;53.640;10.050;2024-02-15T04:04:43;101324.81;;;10.72;100.00
23574;BME280;11965;53.640;10.050;2024-02-15T04:07:12;101327.03;;;10.76;100.00
23574;BME280;11965;53.640;10.050;2024-02-15T04:09:41;101331.72;;;10.76;100.00
23574;BME280;11965;53.640;10.050;2024-02-15T04:12:08;101323.41;;;10.76;100.00
23574;BME280;11965;53.640;10.050;2024-02-15T04:14:35;101296.44;;;10.70;100.00
23574;BME280;11965;53.640;10.050;2024-02-15T04:17:04;101287.91;;;10.71;100.00
23574;BME280;11965;53.640;10.050;2024-02-15T04:19:31;101319.09;;;10.73;100.00
23574;BME280;11965;53.640;10.050;2024-02-15T04:21:59;101315.03;;;10.84;100.00
23574;BME280;11965;53.640;10.050;2024-02-15T04:24:30;101323.97;;;10.94;100.00
23574;BME280;11965;53.640;10.050;2024-02-15T04:26:58;101326.66;;;10.79;100.00
23574;BME280;11965;53.640;10.050;2024-02-15T04:29:25;101332.72;;;10.83;100.00
23574;BME280;11965;53.640;10.050;2024-02-15T04:31:52;101332.78;;;10.75;100.00
23574;BME280;11965;53.640;10.050;2024-02-15T04:34:20;101342.44;;;10.79;100.00
23574;BME280;11965;53.640;10.050;2024-02-15T04:36:48;101340.53;;;10.79;100.00
23574;BME280;11965;53.640;10.050;2024-02-15T04:39:16;101343.13;;;10.81;100.00
23574;BME280;11965;53.640;10.050;2024-02-15T04:41:50;101341.63;;;10.93;100.00
23574;BME280;11965;53.640;10.050;2024-02-15T04:44:18;101336.03;;;10.78;100.00
23574;BME280;11965;53.640;10.050;2024-02-15T04:46:46;101347.50;;;10.75;100.00
23574;BME280;11965;53.640;10.050;2024-02-15T04:49:14;101343.72;;;10.68;100.00
23574;BME280;11965;53.640;10.050;2024-02-15T04:51:42;101351.31;;;10.74;100.00
23574;BME280;11965;53.640;10.050;2024-02-15T04:54:09;101350.66;;;10.72;100.00
23574;BME280;11965;53.640;10.050;2024-02-15T04:56:38;101354.91;;;10.83;100.00
23574;BME280;11965;53.640;10.050;2024-02-15T04:59:06;101363.22;;;10.83;100.00
23574;BME280;11965;53.640;10.050;2024-02-15T05:01:35;101356.78;;;10.82;100.00
23574;BME280;11965;53.640;10.050;2024-02-15T05:04:02;101347.44;;;10.83;100.00
23574;BME280;11965;53.640;10.050;2024-02-15T05:06:33;101362.38;;;10.74;100.00
23574;BME280;11965;53.640;10.050;2024-02-15T05:09:02;101359.38;;;10.84;100.00
23574;BME280;11965;53.640;10.050;2024-02-15T05:11:33;101364.50;;;10.72;100.00
23574;BME280;11965;53.640;10.050;2024-02-15T05:14:02;101358.38;;;10.77;100.00
23574;BME280;11965;53.640;10.050;2024-02-15T05:16:31;101357.00;;;10.81;100.00
23574;BME280;11965;53.640;10.050;2024-02-15T05:19:00;101353.72;;;10.77;100.00
23574;BME280;11965;53.640;10.050;2024-02-15T05:21:28;101349.41;;;10.75;100.00
23574;BME280;11965;53.640;10.050;2024-02-15T05:23:56;101356.25;;;10.87;100.00
23574;BME280;11965;53.640;10.050;2024-02-15T05:26:23;101362.78;;;10.94;100.00
23574;BME280;11965;53.640;10.050;2024-02-15T05:28:50;101357.84;;;10.81;100.00
23574;BME280;11965;53.640;10.050;2024-02-15T05:31:18;101354.38;;;10.79;100.00
23574;BME280;11965;53.640;10.050;2024-02-15T05:33:46;101346.31;;;10.70;100.00
23574;BME280;11965;53.640;10.050;2024-02-15T05:36:15;101354.66;;;10.70;100.00
23574;BME280;11965;53.640;10.050;2024-02-15T05:38:47;101341.50;;;10.64;100.00
23574;BME280;11965;53.640;10.050;2024-02-15T05:41:14;101347.88;;;10.72;100.00
23574;BME280;11965;53.640;10.050;2024-02-15T05:43:42;101343.56;;;10.70;100.00
23574;BME280;11965;53.640;10.050;2024-02-15T05:46:09;101346.00;;;10.65;100.00
23574;BME280;11965;53.640;10.050;2024-02-15T05:48:37;101337.84;;;10.94;100.00
23574;BME280;11965;53.640;10.050;2024-02-15T05:51:06;101335.34;;;10.76;100.00
23574;BME280;11965;53.640;10.050;2024-02-15T05:53:35;101335.56;;;10.75;100.00
23574;BME280;11965;53.640;10.050;2024-02-15T05:56:04;101339.44;;;10.89;100.00
23574;BME280;11965;53.640;10.050;2024-02-15T05:58:32;101340.34;;;10.81;100.00
23574;BME280;11965;53.640;10.050;2024-02-15T06:01:00;101341.75;;;10.77;100.00
23574;BME280;11965;53.640;10.050;2024-02-15T06:03:27;101346.59;;;10.83;100.00
23574;BME280;11965;53.640;10.050;2024-02-15T06:05:54;101341.59;;;10.78;100.00
23574;BME280;11965;53.640;10.050;2024-02-15T06:08:24;101346.28;;;10.78;100.00
23574;BME280;11965;53.640;10.050;2024-02-15T06:10:53;101349.03;;;10.78;100.00
23574;BME280;11965;53.640;10.050;2024-02-15T06:13:20;101341.44;;;10.72;100.00
23574;BME280;11965;53.640;10.050;2024-02-15T06:15:47;101350.44;;;10.74;100.00
23574;BME280;11965;53.640;10.050;2024-02-15T06:18:18;101346.69;;;10.67;100.00
23574;BME280;11965;53.640;10.050;2024-02-15T06:20:47;101353.41;;;10.72;100.00
23574;BME280;11965;53.640;10.050;2024-02-15T06:23:15;101354.75;;;10.76;100.00
23574;BME280;11965;53.640;10.050;2024-02-15T06:25:42;101352.31;;;10.81;100.00
23574;BME280;11965;53.640;10.050;2024-02-15T06:28:11;101353.03;;;10.75;100.00
23574;BME280;11965;53.640;10.050;2024-02-15T06:31:01;101353.72;;;10.77;100.00
23574;BME280;11965;53.640;10.050;2024-02-15T06:33:45;101357.38;;;10.78;100.00
23574;BME280;11965;53.640;10.050;2024-02-15T06:36:30;101356.00;;;10.74;100.00
23574;BME280;11965;53.640;10.050;2024-02-15T06:39:14;101355.69;;;10.69;100.00
23574;BME280;11965;53.640;10.050;2024-02-15T06:42:01;101352.53;;;10.72;100.00
23574;BME280;11965;53.640;10.050;2024-02-15T06:44:29;101353.09;;;10.67;100.00
23574;BME280;11965;53.640;10.050;2024-02-15T06:46:56;101359.31;;;10.69;100.00
23574;BME280;11965;53.640;10.050;2024-02-15T06:49:23;101355.81;;;10.75;100.00
23574;BME280;11965;53.640;10.050;2024-02-15T06:51:51;101359.44;;;10.76;100.00
23574;BME280;11965;53.640;10.050;2024-02-15T06:54:18;101350.66;;;10.72;100.00
23574;BME280;11965;53.640;10.050;2024-02-15T06:56:45;101357.22;;;10.71;100.00
23574;BME280;11965;53.640;10.050;2024-02-15T06:59:13;101359.38;;;10.84;100.00
23574;BME280;11965;53.640;10.050;2024-02-15T07:01:42;101357.09;;;10.88;100.00
23574;BME280;11965;53.640;10.050;2024-02-15T07:04:09;101367.41;;;10.79;100.00
23574;BME280;11965;53.640;10.050;2024-02-15T07:06:37;101366.06;;;10.75;100.00
23574;BME280;11965;53.640;10.050;2024-02-15T07:09:05;101373.25;;;10.84;100.00
23574;BME280;11965;53.640;10.050;2024-02-15T07:11:32;101360.09;;;10.86;100.00
23574;BME280;11965;53.640;10.050;2024-02-15T07:14:00;101363.16;;;10.91;100.00
23574;BME280;11965;53.640;10.050;2024-02-15T07:16:27;101359.94;;;10.79;100.00
23574;BME280;11965;53.640;10.050;2024-02-15T07:18:56;101367.81;;;10.91;100.00
23574;BME280;11965;53.640;10.050;2024-02-15T07:21:23;101365.41;;;10.88;100.00
23574;BME280;11965;53.640;10.050;2024-02-15T07:23:52;101362.84;;;10.86;100.00
23574;BME280;11965;53.640;10.050;2024-02-15T07:26:20;101362.34;;;10.82;100.00
23574;BME280;11965;53.640;10.050;2024-02-15T07:28:50;101361.78;;;10.87;100.00
23574;BME280;11965;53.640;10.050;2024-02-15T07:31:18;101347.00;;;10.95;100.00
23574;BME280;11965;53.640;10.050;2024-02-15T07:33:47;101362.97;;;10.93;100.00
23574;BME280;11965;53.640;10.050;2024-02-15T07:36:19;101364.19;;;10.90;100.00
23574;BME280;11965;53.640;10.050;2024-02-15T07:38:47;101370.56;;;10.99;100.00
23574;BME280;11965;53.640;10.050;2024-02-15T07:41:14;101373.38;;;11.14;100.00
23574;BME280;11965;53.640;10.050;2024-02-15T07:43:41;101378.81;;;11.07;100.00
23574;BME280;11965;53.640;10.050;2024-02-15T07:46:11;101374.13;;;11.08;100.00
23574;BME280;11965;53.640;10.050;2024-02-15T07:48:39;101382.84;;;11.04;100.00
23574;BME280;11965;53.640;10.050;2024-02-15T07:51:12;101375.84;;;11.09;100.00
23574;BME280;11965;53.640;10.050;2024-02-15T07:53:40;101387.09;;;11.15;100.00
23574;BME280;11965;53.640;10.050;2024-02-15T07:56:08;101386.63;;;11.03;100.00
23574;BME280;11965;53.640;10.050;2024-02-15T07:58:38;101384.38;;;11.07;100.00
23574;BME280;11965;53.640;10.050;2024-02-15T08:01:07;101381.78;;;11.05;100.00
23574;BME280;11965;53.640;10.050;2024-02-15T08:03:34;101379.31;;;11.11;100.00
23574;BME280;11965;53.640;10.050;2024-02-15T08:06:02;101378.81;;;11.07;100.00
23574;BME280;11965;53.640;10.050;2024-02-15T08:08:33;101389.03;;;11.06;100.00
23574;BME280;11965;53.640;10.050;2024-02-15T08:11:03;101396.94;;;11.18;100.00
23574;BME280;11965;53.640;10.050;2024-02-15T08:13:30;101391.25;;;11.11;100.00
23574;BME280;11965;53.640;10.050;2024-02-15T08:15:57;101387.25;;;11.14;100.00
23574;BME280;11965;53.640;10.050;2024-02-15T08:18:24;101383.06;;;11.18;100.00
23574;BME280;11965;53.640;10.050;2024-02-15T08:20:51;101384.03;;;11.25;100.00
23574;BME280;11965;53.640;10.050;2024-02-15T08:23:18;101387.81;;;11.09;100.00
23574;BME280;11965;53.640;10.050;2024-02-15T08:25:45;101369.06;;;11.11;100.00
23574;BME280;11965;53.640;10.050;2024-02-15T08:28:14;101380.53;;;11.31;100.00
23574;BME280;11965;53.640;10.050;2024-02-15T08:30:41;101382.41;;;11.16;100.00
23574;BME280;11965;53.640;10.050;2024-02-15T08:33:08;101384.84;;;11.11;100.00
23574;BME280;11965;53.640;10.050;2024-02-15T08:35:37;101379.63;;;11.16;100.00
23574;BME280;11965;53.640;10.050;2024-02-15T08:38:05;101379.41;;;11.17;100.00
23574;BME280;11965;53.640;10.050;2024-02-15T08:40:33;101380.66;;;11.15;100.00
23574;BME280;11965;53.640;10.050;2024-02-15T08:43:00;101374.38;;;11.21;100.00
23574;BME280;11965;53.640;10.050;2024-02-15T08:45:29;101369.84;;;11.20;100.00
23574;BME280;11965;53.640;10.050;2024-02-15T08:47:56;101367.97;;;11.20;100.00
23574;BME280;11965;53.640;10.050;2024-02-15T08:50:23;101372.50;;;11.36;100.00
23574;BME280;11965;53.640;10.050;2024-02-15T08:52:50;101371.63;;;11.36;100.00
23574;BME280;11965;53.640;10.050;2024-02-15T08:55:17;101362.63;;;11.34;100.00
23574;BME280;11965;53.640;10.050;2024-02-15T08:57:49;101365.16;;;11.43;100.00
23574;BME280;11965;53.640;10.050;2024-02-15T09:00:16;101360.59;;;11.50;100.00
23574;BME280;11965;53.640;10.050;2024-02-15T09:02:45;101363.06;;;11.60;100.00
23574;BME280;11965;53.640;10.050;2024-02-15T09:05:12;101364.72;;;11.69;100.00
23574;BME280;11965;53.640;10.050;2024-02-15T09:07:40;101355.25;;;11.64;100.00
23574;BME280;11965;53.640;10.050;2024-02-15T09:10:09;101368.63;;;11.60;100.00
23574;BME280;11965;53.640;10.050;2024-02-15T09:12:37;101372.94;;;11.63;100.00
23574;BME280;11965;53.640;10.050;2024-02-15T09:15:06;101369.44;;;11.69;100.00
23574;BME280;11965;53.640;10.050;2024-02-15T09:17:34;101367.75;;;11.60;100.00
23574;BME280;11965;53.640;10.050;2024-02-15T09:20:08;101367.59;;;11.61;100.00
23574;BME280;11965;53.640;10.050;2024-02-15T09:22:40;101365.66;;;11.62;100.00
23574;BME280;11965;53.640;10.050;2024-02-15T09:25:08;101366.06;;;11.59;100.00
23574;BME280;11965;53.640;10.050;2024-02-15T09:27:35;101358.09;;;11.70;100.00
23574;BME280;11965;53.640;10.050;2024-02-15T09:30:02;101370.03;;;11.94;100.00
23574;BME280;11965;53.640;10.050;2024-02-15T09:32:33;101356.16;;;11.94;100.00
23574;BME280;11965;53.640;10.050;2024-02-15T09:35:01;101364.47;;;12.24;100.00
23574;BME280;11965;53.640;10.050;2024-02-15T09:37:29;101358.53;;;12.27;100.00
23574;BME280;11965;53.640;10.050;2024-02-15T09:39:56;101360.56;;;12.18;100.00
23574;BME280;11965;53.640;10.050;2024-02-15T09:42:24;101361.22;;;12.20;100.00
23574;BME280;11965;53.640;10.050;2024-02-15T09:44:51;101364.66;;;12.22;100.00
23574;BME280;11965;53.640;10.050;2024-02-15T09:47:19;101356.31;;;12.22;100.00
23574;BME280;11965;53.640;10.050;2024-02-15T09:49:47;101361.88;;;12.22;100.00
23574;BME280;11965;53.640;10.050;2024-02-15T09:52:15;101365.81;;;12.13;100.00
23574;BME280;11965;53.640;10.050;2024-02-15T09:54:46;101365.03;;;12.19;100.00
23574;BME280;11965;53.640;10.050;2024-02-15T09:57:13;101367.53;;;12.14;100.00
23574;BME280;11965;53.640;10.050;2024-02-15T09:59:40;101363.13;;;12.20;100.00
23574;BME280;11965;53.640;10.050;2024-02-15T10:02:10;101359.03;;;12.15;100.00
23574;BME280;11965;53.640;10.050;2024-02-15T10:04:39;101368.03;;;12.18;100.00
23574;BME280;11965;53.640;10.050;2024-02-15T10:07:07;101375.03;;;12.28;100.00
23574;BME280;11965;53.640;10.050;2024-02-15T10:09:35;101360.28;;;12.13;100.00
23574;BME280;11965;53.640;10.050;2024-02-15T10:12:05;101367.25;;;12.09;100.00
23574;BME280;11965;53.640;10.050;2024-02-15T10:14:33;101367.63;;;12.06;100.00
23574;BME280;11965;53.640;10.050;2024-02-15T10:17:07;101362.19;;;12.12;100.00
23574;BME280;11965;53.640;10.050;2024-02-15T10:19:36;101363.13;;;12.20;100.00
23574;BME280;11965;53.640;10.050;2024-02-15T10:22:08;101368.22;;;12.16;100.00
23574;BME280;11965;53.640;10.050;2024-02-15T10:24:36;101367.06;;;12.10;100.00
23574;BME280;11965;53.640;10.050;2024-02-15T10:27:06;101374.44;;;12.03;100.00
23574;BME280;11965;53.640;10.050;2024-02-15T10:29:34;101365.53;;;12.08;100.00
23574;BME280;11965;53.640;10.050;2024-02-15T10:32:02;101369.28;;;12.15;100.00
23574;BME280;11965;53.640;10.050;2024-02-15T10:34:29;101369.84;;;12.10;100.00
23574;BME280;11965;53.640;10.050;2024-02-15T10:37:11;101357.28;;;12.00;100.00
23574;BME280;11965;53.640;10.050;2024-02-15T10:39:38;101369.66;;;12.12;100.00
23574;BME280;11965;53.640;10.050;2024-02-15T10:42:07;101371.00;;;12.16;100.00
23574;BME280;11965;53.640;10.050;2024-02-15T10:44:37;101356.63;;;12.12;100.00
23574;BME280;11965;53.640;10.050;2024-02-15T10:47:07;101357.38;;;12.21;100.00
23574;BME280;11965;53.640;10.050;2024-02-15T10:49:35;101353.63;;;12.14;100.00
23574;BME280;11965;53.640;10.050;2024-02-15T10:52:04;101362.84;;;12.29;100.00
23574;BME280;11965;53.640;10.050;2024-02-15T10:54:41;101364.84;;;12.35;100.00
23574;BME280;11965;53.640;10.050;2024-02-15T10:57:11;101359.78;;;12.24;100.00
23574;BME280;11965;53.640;10.050;2024-02-15T10:59:48;101357.84;;;12.25;100.00
23574;BME280;11965;53.640;10.050;2024-02-15T11:02:26;101353.06;;;12.33;100.00
23574;BME280;11965;53.640;10.050;2024-02-15T11:04:59;101351.81;;;12.36;100.00
23574;BME280;11965;53.640;10.050;2024-02-15T11:07:31;101352.00;;;12.20;100.00
23574;BME280;11965;53.640;10.050;2024-02-15T11:09:59;101348.72;;;12.46;100.00
23574;BME280;11965;53.640;10.050;2024-02-15T11:12:28;101353.34;;;12.38;100.00
23574;BME280;11965;53.640;10.050;2024-02-15T11:14:56;101342.06;;;12.25;100.00
23574;BME280;11965;53.640;10.050;2024-02-15T11:17:45;101340.41;;;12.31;100.00
23574;BME280;11965;53.640;10.050;2024-02-15T11:20:45;101346.38;;;12.28;100.00
23574;BME280;11965;53.640;10.050;2024-02-15T11:23:24;101341.56;;;12.22;100.00
23574;BME280;11965;53.640;10.050;2024-02-15T11:25:52;101334.75;;;12.24;100.00
23574;BME280;11965;53.640;10.050;2024-02-15T11:28:48;101328.84;;;12.12;100.00
23574;BME280;11965;53.640;10.050;2024-02-15T11:31:53;101332.09;;;12.16;100.00
23574;BME280;11965;53.640;10.050;2024-02-15T11:34:43;101328.75;;;12.21;100.00
23574;BME280;11965;53.640;10.050;2024-02-15T11:40:12;101334.59;;;12.26;100.00
23574;BME280;11965;53.640;10.050;2024-02-15T11:42:39;101328.00;;;12.12;100.00
23574;BME280;11965;53.640;10.050;2024-02-15T11:45:08;101321.53;;;12.11;100.00
23574;BME280;11965;53.640;10.050;2024-02-15T11:47:37;101329.63;;;12.06;100.00
23574;BME280;11965;53.640;10.050;2024-02-15T11:50:08;101322.31;;;12.05;100.00
23574;BME280;11965;53.640;10.050;2024-02-15T11:52:38;101315.06;;;12.04;100.00
23574;BME280;11965;53.640;10.050;2024-02-15T11:55:06;101313.13;;;12.05;100.00
23574;BME280;11965;53.640;10.050;2024-02-15T11:57:36;101321.53;;;12.11;100.00
23574;BME280;11965;53.640;10.050;2024-02-15T12:00:21;101311.50;;;12.10;100.00
23574;BME280;11965;53.640;10.050;2024-02-15T12:03:06;101312.84;;;12.00;100.00
23574;BME280;11965;53.640;10.050;2024-02-15T12:06:05;101312.09;;;11.91;100.00
23574;BME280;11965;53.640;10.050;2024-02-15T12:08:50;101302.22;;;11.88;100.00
23574;BME280;11965;53.640;10.050;2024-02-15T12:11:35;101308.47;;;11.90;100.00
23574;BME280;11965;53.640;10.050;2024-02-15T12:14:19;101305.28;;;11.93;100.00
23574;BME280;11965;53.640;10.050;2024-02-15T12:17:07;101300.88;;;11.99;100.00
23574;BME280;11965;53.640;10.050;2024-02-15T12:19:53;101298.78;;;12.01;100.00
23574;BME280;11965;53.640;10.050;2024-02-15T12:22:24;101296.19;;;12.00;100.00
23574;BME280;11965;53.640;10.050;2024-02-15T12:24:53;101295.91;;;11.94;100.00
23574;BME280;11965;53.640;10.050;2024-02-15T12:27:21;101285.34;;;12.05;100.00
23574;BME280;11965;53.640;10.050;2024-02-15T12:29:54;101287.28;;;12.04;100.00
23574;BME280;11965;53.640;10.050;2024-02-15T12:32:24;101286.78;;;12.01;100.00
23574;BME280;11965;53.640;10.050;2024-02-15T12:34:51;101284.78;;;11.94;100.00
23574;BME280;11965;53.640;10.050;2024-02-15T12:37:19;101279.78;;;12.05;100.00
23574;BME280;11965;53.640;10.050;2024-02-15T12:39:48;101291.59;;;11.92;100.00
23574;BME280;11965;53.640;10.050;2024-02-15T12:42:15;101285.47;;;11.97;100.00
23574;BME280;11965;53.640;10.050;2024-02-15T12:44:44;101284.38;;;11.98;100.00